Airfield :
LOGIN :

Register | Disclaimer

   EN    FR    IT 

 










Legend :    VFR   Marginal VFR   IFR   Intensive IFR   Very Intensive IFR
Visi :
Ceiling :
>= 8 km
>= 3000ft
5 to 8 km
1000 to 3000 ft
1500m to 5 km
500 to 1000 ft
800 to 1500m
200 to 500 ft
< 800m
< 200 ft
Symbols :   Thunderstorms  Fog  Heavy snow  Heavy precipitations  Wind > 20 kt
SIGMETs :     Misc.  Thunderstorms  Icing  Turbulence  Mountain Waves  Volcanic Ashes







- Airport Elevation : 156 ft
- IATA code : OMO


LQMO - Mostar

CURRENT METAR :
  • 202100Z 24004KT 210V270 9999 FEW045 22/11 Q1012

EXPIRED METARs :
  • 202030Z 15004KT 090V230 9999 FEW045 22/11 Q1012
  • 202000Z 20004KT 160V260 9999 FEW045 SCT090 23/11 Q1012
  • 201930Z 16006KT 120V190 9999 FEW045 SCT090 24/10 Q1012
  • 201900Z VRB03KT 9999 FEW045 SCT093 26/09 Q1011
  • 201830Z VRB02KT 9999 FEW045 SCT090 25/10 Q1011

TAF TAF LQMO
Valid from the 20 at 18:00 until the 21 at 18:00 UTC


201700Z 2018/2118 03007KT CAVOK TX29/2113Z TN13/2103Z
PROB40
TEMPO 2111/2117 VRB15KT TSRA FEW040CB SCT055
No reported NOTAMs for that airfield.



MET'MAP, your aeronautical weather chart ! - Copyright ORBIFLY December 2007 - Disclaimer

ORBIFLY MET'MAP TEAM :

Programming & Development : Alexandra Zaïnal
Concept & Development : Baudouin d'Aumeries
Co-Development & Prog : Marc-Olivier Méhu
Technical & hardware support : Manuel Goepfert

Contact : metmap@orbifly.com




SOURCES & CREDITS :

   NOAA